Time;durP1;ratioP1;P1;durP2;ratioP2;P2;SDS_P1;SDS_P2;PMS_P1;PMS_P2;Temp;Humidity;BMP_temperature;BMP_pressure;BME280_temperature;BME280_humidity;BME280_pressure;Samples;Min_cycle;Max_cycle;Signal;HPM_P1;HPM_P2
2022/07/27 00:00:03;;;;;;;8.27;2.03;;;13.60;99.90;;;;;;4999974;28;20049;-81
2022/07/27 00:02:29;;;;;;;5.15;2.13;;;;;;;;;;5015454;28;20083;-81
2022/07/27 00:04:55;;;;;;;7.40;2.17;;;;;;;;;;4999358;28;20049;-81
2022/07/27 00:07:21;;;;;;;5.53;2.17;;;;;;;;;;5016244;28;20156;-81
2022/07/27 00:09:47;;;;;;;6.40;2.08;;;;;;;;;;5016664;28;20447;-81
2022/07/27 00:12:13;;;;;;;6.72;2.15;;;;;;;;;;5034728;28;20128;-81
2022/07/27 00:14:39;;;;;;;7.50;2.10;;;;;;;;;;5034080;28;20077;-81
2022/07/27 00:17:05;;;;;;;5.60;2.20;;;;;;;;;;5034672;28;20085;-81
2022/07/27 00:19:31;;;;;;;7.78;2.08;;;;;;;;;;5034481;28;20103;-81
2022/07/27 00:21:58;;;;;;;7.40;2.33;;;;;;;;;;5033377;28;20080;-80
2022/07/27 00:24:24;;;;;;;6.65;1.88;;;;;;;;;;5015328;28;20068;-79
2022/07/27 00:26:51;;;;;;;10.52;2.25;;;;;;;;;;5033367;28;20083;-79
2022/07/27 00:29:17;;;;;;;8.75;2.00;;;;;;;;;;5033955;28;20053;-80
2022/07/27 00:31:43;;;;;;;6.35;2.00;;;;;;;;;;5036951;28;20057;-80
2022/07/27 00:34:09;;;;;;;8.10;2.13;;;;;;;;;;5003574;28;20057;-80
2022/07/27 00:36:40;;;;;;;6.80;2.00;;;13.30;99.90;;;;;;5003121;28;20057;-80
2022/07/27 00:39:12;;;;;;;7.60;2.08;;;;;;;;;;5019091;28;20053;-80
2022/07/27 00:41:38;;;;;;;9.68;2.20;;;;;;;;;;5036761;28;20067;-80
2022/07/27 00:44:05;;;;;;;7.28;2.30;;;;;;;;;;5019115;28;20128;-80
2022/07/27 00:46:31;;;;;;;5.07;1.83;;;;;;;;;;5036262;28;20049;-80
2022/07/27 00:48:58;;;;;;;9.93;2.50;;;;;;;;;;5019435;28;20426;-82
2022/07/27 00:51:24;;;;;;;5.45;2.25;;;;;;;;;;5018878;28;20408;-81
2022/07/27 00:53:51;;;;;;;7.53;2.00;;;13.10;99.90;;;;;;5036558;28;20049;-79
2022/07/27 00:56:18;;;;;;;4.82;2.08;;;;;;;;;;5018599;28;20057;-79
2022/07/27 00:58:47;;;;;;;7.55;2.20;;;13.20;99.90;;;;;;5036575;28;20077;-79
2022/07/27 01:01:13;;;;;;;7.30;2.30;;;;;;;;;;5013119;28;20054;-79
2022/07/27 01:03:39;;;;;;;6.90;2.20;;;;;;;;;;5024495;28;20488;-79
2022/07/27 01:06:06;;;;;;;5.90;2.00;;;;;;;;;;4998557;28;20104;-79
2022/07/27 01:08:32;;;;;;;6.05;2.10;;;;;;;;;;4998867;28;20092;-79
2022/07/27 01:10:58;;;;;;;9.68;2.13;;;13.20;99.90;;;;;;5016720;28;20062;-79
2022/07/27 01:13:25;;;;;;;6.35;2.40;;;13.10;99.90;;;;;;5015983;28;20046;-79
2022/07/27 01:15:52;;;;;;;4.93;2.08;;;13.10;99.90;;;;;;5016152;28;20057;-79
2022/07/27 01:18:35;;;;;;;7.13;2.50;;;13.10;99.90;;;;;;4998390;28;20397;-80
2022/07/27 01:21:02;;;;;;;4.90;2.30;;;13.10;99.90;;;;;;5015096;28;20497;-79
2022/07/27 01:23:31;;;;;;;4.55;2.20;;;;;;;;;;5016254;28;20072;-79
2022/07/27 01:25:57;;;;;;;5.65;2.28;;;;;;;;;;5015084;28;20046;-79
2022/07/27 01:28:23;;;;;;;6.07;2.50;;;;;;;;;;5016099;28;20046;-79
2022/07/27 01:30:49;;;;;;;7.78;2.30;;;;;;;;;;4998535;28;20088;-79
2022/07/27 01:33:16;;;;;;;6.93;2.45;;;;;;;;;;5016076;28;20054;-79
2022/07/27 01:35:42;;;;;;;6.82;2.30;;;;;;;;;;4998539;28;20050;-79
2022/07/27 01:38:09;;;;;;;8.50;2.38;;;13.30;99.90;;;;;;5016016;28;20184;-79
2022/07/27 01:40:35;;;;;;;8.13;2.50;;;;;;;;;;4997545;28;20058;-80
2022/07/27 01:43:02;;;;;;;7.38;2.60;;;;;;;;;;4998120;28;20059;-79
2022/07/27 01:45:28;;;;;;;6.82;2.45;;;;;;;;;;5016101;28;20531;-79
2022/07/27 01:47:54;;;;;;;7.22;2.50;;;;;;;;;;4999006;28;20054;-79
2022/07/27 01:50:20;;;;;;;8.05;2.33;;;;;;;;;;4998582;28;20357;-79
2022/07/27 01:52:46;;;;;;;5.97;2.38;;;;;;;;;;5014531;28;20053;-79
2022/07/27 01:55:12;;;;;;;5.75;2.45;;;;;;;;;;5014759;28;20054;-79
2022/07/27 01:57:38;;;;;;;8.43;2.47;;;;;;;;;;5015614;28;20064;-79
2022/07/27 02:00:06;;;;;;;6.32;2.50;;;13.40;99.90;;;;;;4998092;28;20448;-79
2022/07/27 02:02:33;;;;;;;6.53;2.40;;;;;;;;;;4997612;28;20056;-79
2022/07/27 02:04:59;;;;;;;7.53;2.50;;;;;;;;;;5014066;28;20054;-79
2022/07/27 02:07:25;;;;;;;6.53;2.35;;;;;;;;;;5015381;28;20050;-78
2022/07/27 02:09:51;;;;;;;4.93;2.30;;;;;;;;;;5015378;28;20149;-79
2022/07/27 02:12:35;;;;;;;6.22;2.22;;;;;;;;;;5015458;28;20103;-79
2022/07/27 02:15:13;;;;;;;4.18;2.20;;;13.40;99.90;;;;;;4997441;28;20056;-79
2022/07/27 02:17:39;;;;;;;7.47;2.50;;;;;;;;;;4997698;28;20463;-82
2022/07/27 02:20:06;;;;;;;6.45;2.28;;;16.50;99.90;;;;;;5015155;28;20054;-80
2022/07/27 02:22:32;;;;;;;7.82;2.70;;;;;;;;;;5027556;28;20132;-79
2022/07/27 02:24:59;;;;;;;8.50;2.40;;;;;;;;;;5017258;28;20111;-80
2022/07/27 02:27:25;;;;;;;5.35;2.05;;;;;;;;;;5016750;28;20049;-79
2022/07/27 02:29:52;;;;;;;8.07;2.42;;;;;;;;;;5034586;28;20099;-79
2022/07/27 02:32:18;;;;;;;6.65;2.60;;;;;;;;;;5035167;28;20057;-79
2022/07/27 02:34:44;;;;;;;7.20;2.72;;;;;;;;;;5016771;28;20049;-79
2022/07/27 02:37:10;;;;;;;7.20;2.20;;;;;;;;;;5017027;28;20403;-79
2022/07/27 02:39:36;;;;;;;4.45;1.98;;;;;;;;;;5034437;28;20085;-79
2022/07/27 02:42:03;;;;;;;7.28;2.28;;;;;;;;;;5016871;28;20060;-79
2022/07/27 02:44:29;;;;;;;5.38;2.33;;;;;;;;;;5016991;28;20056;-79
2022/07/27 02:46:55;;;;;;;4.68;2.33;;;;;;;;;;5016723;28;20046;-79
2022/07/27 02:49:21;;;;;;;7.50;2.63;;;;;;;;;;5034444;28;20056;-79
2022/07/27 02:51:50;;;;;;;8.65;2.20;;;13.20;99.90;;;;;;5016479;28;20056;-79
2022/07/27 02:54:16;;;;;;;6.63;2.20;;;;;;;;;;4999028;28;20578;-79
2022/07/27 02:56:42;;;;;;;8.23;2.40;;;;;;;;;;5033857;28;20053;-78
2022/07/27 02:59:08;;;;;;;8.65;2.63;;;;;;;;;;5034704;28;20054;-79
2022/07/27 03:01:34;;;;;;;6.57;2.30;;;;;;;;;;5034339;28;20045;-79
2022/07/27 03:04:00;;;;;;;5.07;2.38;;;;;;;;;;5034066;28;20049;-79
2022/07/27 03:06:26;;;;;;;6.63;2.30;;;;;;;;;;5016225;28;20046;-79
2022/07/27 03:08:52;;;;;;;10.07;2.70;;;;;;;;;;5034373;28;20163;-79
2022/07/27 03:11:18;;;;;;;5.82;2.60;;;;;;;;;;5033953;28;20046;-79
2022/07/27 03:13:44;;;;;;;7.50;2.80;;;;;;;;;;4999607;28;20132;-79
2022/07/27 03:16:11;;;;;;;5.30;2.28;;;;;;;;;;5033648;28;20104;-79
2022/07/27 03:18:37;;;;;;;10.10;3.10;;;;;;;;;;5016940;28;20466;-79
2022/07/27 03:21:03;;;;;;;6.13;2.33;;;;;;;;;;5016188;28;20437;-80
2022/07/27 03:23:29;;;;;;;6.90;2.30;;;;;;;;;;5016080;28;20057;-79
2022/07/27 03:25:55;;;;;;;8.18;2.72;;;;;;;;;;5016171;28;20049;-79
2022/07/27 03:28:21;;;;;;;6.70;2.45;;;;;;;;;;5000557;28;20055;-79
2022/07/27 03:30:47;;;;;;;6.57;2.30;;;;;;;;;;5016118;28;20068;-79
2022/07/27 03:33:13;;;;;;;8.15;2.60;;;;;;;;;;5015902;28;20053;-79
2022/07/27 03:35:39;;;;;;;7.78;2.65;;;;;;;;;;5015889;28;20049;-79
2022/07/27 03:38:05;;;;;;;7.20;2.50;;;;;;;;;;5033479;28;20457;-79
2022/07/27 03:40:32;;;;;;;7.00;2.55;;;;;;;;;;4999494;28;20049;-79
2022/07/27 03:42:58;;;;;;;4.68;2.30;;;;;;;;;;5033399;28;20128;-79
2022/07/27 03:45:25;;;;;;;6.75;2.58;;;12.50;99.90;;;;;;5033367;28;20053;-79
2022/07/27 03:47:51;;;;;;;6.28;2.50;;;;;;;;;;5015268;28;20052;-79
2022/07/27 03:50:17;;;;;;;8.73;2.67;;;;;;;;;;5033263;28;20057;-79
2022/07/27 03:52:43;;;;;;;4.47;2.58;;;;;;;;;;5033348;28;20056;-79
2022/07/27 03:55:09;;;;;;;6.03;2.38;;;;;;;;;;5033330;28;20053;-79
2022/07/27 03:57:35;;;;;;;6.35;2.40;;;;;;;;;;4999526;28;20053;-79
2022/07/27 04:00:01;;;;;;;8.25;2.45;;;;;;;;;;5015759;28;20065;-79
2022/07/27 04:02:27;;;;;;;6.15;2.40;;;;;;;;;;5033661;28;20416;-79
2022/07/27 04:04:53;;;;;;;7.07;2.35;;;;;;;;;;5001313;28;20512;-79
2022/07/27 04:07:19;;;;;;;9.55;2.60;;;;;;;;;;5019443;28;20065;-79
2022/07/27 04:09:45;;;;;;;7.57;2.92;;;;;;;;;;5038259;28;20067;-78
2022/07/27 04:12:12;;;;;;;9.95;2.80;;;;;;;;;;5029657;28;20050;-79
2022/07/27 04:14:38;;;;;;;6.32;2.70;;;;;;;;;;5006368;28;20081;-80
2022/07/27 04:17:04;;;;;;;5.57;2.70;;;;;;;;;;5016026;28;20141;-81
2022/07/27 04:19:30;;;;;;;5.18;2.70;;;;;;;;;;5014384;28;20083;-79
2022/07/27 04:21:56;;;;;;;6.10;2.75;;;;;;;;;;4999589;28;20138;-79
2022/07/27 04:24:22;;;;;;;6.28;2.70;;;;;;;;;;4984800;28;20046;-79
2022/07/27 04:26:48;;;;;;;5.75;2.75;;;;;;;;;;4999847;28;20052;-79
2022/07/27 04:29:14;;;;;;;6.72;3.10;;;;;;;;;;4999785;28;20196;-79
2022/07/27 04:31:40;;;;;;;7.03;2.60;;;;;;;;;;5016885;28;20064;-78
2022/07/27 04:34:06;;;;;;;7.20;3.35;;;;;;;;;;5016893;28;20424;-79
2022/07/27 04:36:32;;;;;;;8.60;2.63;;;;;;;;;;4999767;28;20049;-79
2022/07/27 04:38:58;;;;;;;8.98;3.00;;;;;;;;;;5018599;28;20062;-79
2022/07/27 04:41:24;;;;;;;6.75;3.08;;;;;;;;;;5017237;28;20080;-79
2022/07/27 04:44:11;;;;;;;7.85;2.75;;;12.70;99.90;;;;;;5017167;28;20050;-79
2022/07/27 04:46:37;;;;;;;8.43;3.30;;;;;;;;;;5016671;28;20518;-79
2022/07/27 04:49:03;;;;;;;8.38;3.05;;;;;;;;;;4998982;28;20093;-79
2022/07/27 04:51:29;;;;;;;9.93;2.80;;;;;;;;;;5016841;28;20058;-77
2022/07/27 04:53:55;;;;;;;7.13;2.90;;;;;;;;;;5016708;28;20096;-77
2022/07/27 04:56:21;;;;;;;6.45;3.20;;;;;;;;;;4999004;28;20054;-77
2022/07/27 04:58:47;;;;;;;5.97;2.95;;;;;;;;;;4999300;28;20054;-77
2022/07/27 05:01:13;;;;;;;8.38;3.22;;;;;;;;;;5022577;28;20105;-78
2022/07/27 05:03:39;;;;;;;7.43;2.95;;;13.10;99.90;;;;;;5007369;28;20053;-78
2022/07/27 05:06:05;;;;;;;7.90;2.80;;;;;;;;;;4983367;28;20081;-78
2022/07/27 05:08:32;;;;;;;8.43;3.08;;;;;;;;;;4999090;28;20156;-78
2022/07/27 05:10:58;;;;;;;8.13;2.78;;;;;;;;;;4998881;28;20061;-79
2022/07/27 05:13:24;;;;;;;6.88;3.08;;;;;;;;;;4982355;28;20093;-79
2022/07/27 05:15:50;;;;;;;7.78;2.95;;;;;;;;;;4998098;28;20073;-78
2022/07/27 05:18:17;;;;;;;7.03;3.22;;;;;;;;;;5016358;28;20054;-78
2022/07/27 05:20:43;;;;;;;7.47;2.88;;;;;;;;;;4999276;28;20062;-79
2022/07/27 05:23:10;;;;;;;8.57;3.05;;;;;;;;;;4998859;28;20049;-78
2022/07/27 05:25:38;;;;;;;8.63;2.97;;;13.40;99.90;;;;;;5035688;28;20073;-80
2022/07/27 05:28:04;;;;;;;11.15;3.17;;;;;;;;;;5042919;28;20080;-80
2022/07/27 05:30:30;;;;;;;7.75;2.90;;;;;;;;;;5035662;28;20049;-81
2022/07/27 05:32:56;;;;;;;5.85;2.80;;;;;;;;;;5006465;28;20104;-81
2022/07/27 05:35:22;;;;;;;14.15;3.20;;;;;;;;;;5022454;28;20050;-80
2022/07/27 05:37:48;;;;;;;7.00;2.80;;;;;;;;;;5052330;28;20123;-81
2022/07/27 05:40:14;;;;;;;8.75;2.90;;;;;;;;;;5038531;28;20053;-80
2022/07/27 05:42:42;;;;;;;11.98;3.15;;;13.80;99.90;;;;;;5045914;28;20099;-81
2022/07/27 05:45:09;;;;;;;8.18;2.75;;;;;;;;;;5027097;28;20061;-80
2022/07/27 05:47:35;;;;;;;8.75;3.00;;;;;;;;;;5036423;28;20056;-80
2022/07/27 05:50:01;;;;;;;8.45;2.90;;;;;;;;;;5047773;28;21722;-81
2022/07/27 05:52:27;;;;;;;8.18;3.00;;;;;;;;;;5026948;28;20448;-81
2022/07/27 05:54:53;;;;;;;9.50;2.85;;;;;;;;;;5023839;28;20046;-80
2022/07/27 05:57:19;;;;;;;12.00;2.95;;;;;;;;;;5015890;28;20058;-80
2022/07/27 05:59:45;;;;;;;9.32;2.88;;;;;;;;;;5028319;28;20126;-81
2022/07/27 06:02:11;;;;;;;7.70;2.97;;;;;;;;;;5044380;28;20085;-81
2022/07/27 06:04:37;;;;;;;9.02;3.00;;;;;;;;;;5034162;28;20284;-81
2022/07/27 06:10:05;;;;;;;11.05;3.03;;;14.60;99.90;;;;;;4977448;28;20121;-81
2022/07/27 06:12:42;;;;;;;10.73;2.70;;;14.70;99.90;;;;;;4984308;28;20054;-81
2022/07/27 06:15:10;;;;;;;9.38;2.83;;;14.80;99.90;;;;;;4990453;28;20121;-81
2022/07/27 06:17:36;;;;;;;6.75;2.70;;;;;;;;;;4951077;28;20046;-83
2022/07/27 06:20:04;;;;;;;9.30;2.65;;;15.00;99.90;;;;;;4973203;28;20066;-80
2022/07/27 06:22:30;;;;;;;7.32;2.72;;;;;;;;;;4979234;28;20055;-82
2022/07/27 06:24:56;;;;;;;9.45;2.78;;;;;;;;;;4984460;28;20402;-80
2022/07/27 06:27:22;;;;;;;11.68;3.10;;;;;;;;;;4975024;28;20535;-81
2022/07/27 06:29:48;;;;;;;7.22;2.83;;;;;;;;;;4974424;28;20062;-81
2022/07/27 06:32:14;;;;;;;7.47;2.80;;;;;;;;;;4971397;28;20501;-80
2022/07/27 06:34:40;;;;;;;8.82;2.83;;;;;;;;;;4961071;28;20082;-81
2022/07/27 06:37:06;;;;;;;7.05;2.75;;;;;;;;;;4975406;28;20054;-81
2022/07/27 06:39:32;;;;;;;6.72;2.67;;;;;;;;;;4985996;28;20046;-81
2022/07/27 06:41:58;;;;;;;9.50;3.00;;;;;;;;;;4981951;28;20082;-81
2022/07/27 06:44:24;;;;;;;6.80;2.45;;;15.70;99.90;;;;;;5029114;28;20079;-81
2022/07/27 06:46:50;;;;;;;9.73;2.75;;;;;;;;;;5034529;28;20045;-80
2022/07/27 06:49:16;;;;;;;7.20;2.80;;;;;;;;;;5030328;28;20056;-80
2022/07/27 06:51:42;;;;;;;6.82;2.60;;;;;;;;;;5048521;28;20046;-80
2022/07/27 06:54:08;;;;;;;9.20;2.65;;;;;;;;;;5048974;28;20499;-80
2022/07/27 06:56:34;;;;;;;11.13;3.28;;;;;;;;;;5051973;28;20045;-80
2022/07/27 06:59:00;;;;;;;7.50;2.60;;;;;;;;;;5042805;28;20045;-80
2022/07/27 07:01:26;;;;;;;7.03;2.47;;;;;;;;;;5049504;28;20056;-80
2022/07/27 07:03:52;;;;;;;5.68;2.33;;;;;;;;;;5040430;28;20045;-81
2022/07/27 07:06:18;;;;;;;9.25;2.72;;;;;;;;;;5051593;28;20056;-81
2022/07/27 07:08:44;;;;;;;7.47;2.00;;;;;;;;;;5045374;28;20392;-81
2022/07/27 07:11:10;;;;;;;8.57;2.17;;;16.70;99.90;;;;;;5053638;28;20136;-81
2022/07/27 07:13:36;;;;;;;6.88;2.22;;;;;;;;;;5046295;28;20045;-81
2022/07/27 07:16:03;;;;;;;6.78;2.10;;;;;;;;;;5041719;28;20507;-81
2022/07/27 07:18:29;;;;;;;8.88;2.10;;;;;;;;;;5020743;28;20061;-81
2022/07/27 07:20:58;;;;;;;8.60;2.00;;;;;;;;;;5028796;28;20050;-81
2022/07/27 07:23:24;;;;;;;8.82;2.42;;;;;;;;;;5048923;28;20053;-81
2022/07/27 07:25:50;;;;;;;7.32;1.83;;;;;;;;;;5043750;28;20128;-80
2022/07/27 07:28:20;;;;;;;9.45;1.90;;;;;;;;;;5029416;28;20053;-81
2022/07/27 07:30:46;;;;;;;7.63;2.17;;;;;;;;;;5040586;28;20050;-81
2022/07/27 07:33:12;;;;;;;9.10;2.35;;;;;;;;;;4998547;28;20054;-81
2022/07/27 07:35:38;;;;;;;6.28;1.95;;;;;;;;;;5038637;28;20129;-81
2022/07/27 07:38:04;;;;;;;7.75;2.00;;;;;;;;;;5042368;28;20483;-81
2022/07/27 07:40:30;;;;;;;8.10;2.03;;;;;;;;;;5045956;28;20124;-80
2022/07/27 07:43:01;;;;;;;6.70;1.92;;;16.90;99.90;;;;;;5052842;28;20373;-81
2022/07/27 07:45:29;;;;;;;4.85;1.70;;;16.90;99.90;;;;;;5003690;28;20054;-81
2022/07/27 07:47:56;;;;;;;7.85;2.00;;;;;;;;;;5039222;28;20100;-81
2022/07/27 07:50:22;;;;;;;7.50;1.77;;;;;;;;;;5033374;28;20404;-81
2022/07/27 07:52:49;;;;;;;4.35;1.52;;;16.80;99.90;;;;;;5019965;28;20080;-80
2022/07/27 07:55:19;;;;;;;4.47;1.52;;;16.80;99.90;;;;;;5001798;28;20485;-82
2022/07/27 07:57:45;;;;;;;4.90;1.67;;;;;;;;;;5018126;28;20198;-81
2022/07/27 08:00:11;;;;;;;7.28;1.70;;;;;;;;;;5029170;28;20084;-81
2022/07/27 08:02:48;;;;;;;3.72;1.70;;;17.30;99.90;;;;;;5039135;28;20061;-82
2022/07/27 08:05:14;;;;;;;4.18;1.42;;;;;;;;;;5020554;28;20068;-82
2022/07/27 08:07:41;;;;;;;6.90;1.70;;;;;;;;;;5007135;28;20045;-81
2022/07/27 08:10:08;;;;;;;3.22;1.50;;;18.40;99.90;;;;;;5041765;28;20053;-81
2022/07/27 08:12:38;;;;;;;5.75;1.40;;;18.60;99.90;;;;;;5018815;28;20499;-81
2022/07/27 08:15:06;;;;;;;4.68;1.33;;;18.60;99.90;;;;;;5052775;28;20072;-80
2022/07/27 08:17:32;;;;;;;4.18;1.70;;;;;;;;;;5043042;28;20049;-81
2022/07/27 08:19:58;;;;;;;4.80;1.60;;;;;;;;;;5038013;28;20515;-80
2022/07/27 08:22:24;;;;;;;5.22;1.40;;;;;;;;;;5022998;28;20045;-81
2022/07/27 08:24:50;;;;;;;5.50;1.45;;;;;;;;;;5052037;28;20106;-81
2022/07/27 08:27:16;;;;;;;4.05;1.33;;;;;;;;;;5052353;28;20053;-82
2022/07/27 08:29:42;;;;;;;5.38;1.88;;;;;;;;;;5029614;28;20052;-81
2022/07/27 08:32:08;;;;;;;5.10;1.60;;;;;;;;;;5043403;28;20732;-81
2022/07/27 08:34:34;;;;;;;3.85;1.30;;;;;;;;;;5003715;28;20395;-81
2022/07/27 08:37:00;;;;;;;4.47;1.40;;;19.60;99.90;;;;;;5027342;28;20049;-81
2022/07/27 08:39:26;;;;;;;4.72;1.42;;;;;;;;;;5012735;28;20057;-81
2022/07/27 08:41:53;;;;;;;3.50;1.50;;;20.10;99.90;;;;;;5037231;28;20412;-81
2022/07/27 08:44:22;;;;;;;4.65;1.50;;;20.70;99.30;;;;;;5024950;28;20132;-81
2022/07/27 08:46:49;;;;;;;5.45;1.50;;;21.00;96.20;;;;;;5014260;28;20653;-81
2022/07/27 08:49:15;;;;;;;5.30;1.73;;;21.10;94.20;;;;;;5024295;28;20050;-81
2022/07/27 08:51:42;;;;;;;4.40;1.50;;;21.40;93.30;;;;;;5051340;28;20477;-81
2022/07/27 08:54:09;;;;;;;5.95;1.75;;;21.60;93.00;;;;;;5037364;28;20106;-82
2022/07/27 08:56:35;;;;;;;6.25;1.75;;;;;;;;;;5040178;28;20132;-82
2022/07/27 08:59:01;;;;;;;6.50;1.77;;;;;;;;;;5041723;28;20048;-81
2022/07/27 09:01:27;;;;;;;6.72;1.60;;;;;;;;;;5013296;28;20048;-81
2022/07/27 09:03:53;;;;;;;4.65;1.58;;;;;;;;;;5028918;28;20075;-82
2022/07/27 09:06:46;;;;;;;3.38;1.30;;;22.40;89.10;;;;;;5006699;28;20063;-81
2022/07/27 09:09:13;;;;;;;5.28;1.40;;;22.40;84.50;;;;;;5010390;28;20065;-81
2022/07/27 09:11:39;;;;;;;7.85;1.88;;;;;;;;;;5030203;28;20565;-81
2022/07/27 09:14:08;;;;;;;5.45;1.60;;;22.70;84.90;;;;;;5054321;28;20561;-82
2022/07/27 09:16:34;;;;;;;5.72;1.67;;;;;;;;;;5030649;28;20123;-82
2022/07/27 09:19:04;;;;;;;4.57;1.60;;;23.20;82.00;;;;;;5048107;28;20060;-81
2022/07/27 09:21:30;;;;;;;6.57;1.50;;;;;;;;;;5055844;28;20120;-81
2022/07/27 09:24:10;;;;;;;4.57;1.77;;;23.30;80.30;;;;;;5046970;28;20050;-81
2022/07/27 09:26:36;;;;;;;6.68;1.85;;;;;;;;;;5020042;28;20054;-81
2022/07/27 09:29:05;;;;;;;6.55;1.73;;;23.30;77.50;;;;;;5032831;28;20049;-81
2022/07/27 09:31:38;;;;;;;7.45;1.60;;;23.30;77.80;;;;;;5042513;28;20081;-81
2022/07/27 09:34:04;;;;;;;6.07;1.80;;;;;;;;;;5035888;28;20120;-81
2022/07/27 09:36:30;;;;;;;6.75;1.60;;;;;;;;;;5039453;28;20061;-81
2022/07/27 09:39:01;;;;;;;6.75;1.80;;;23.30;77.60;;;;;;5041200;28;20131;-81
2022/07/27 09:41:41;;;;;;;4.65;1.63;;;23.20;78.10;;;;;;5041519;28;20052;-81
2022/07/27 09:44:07;;;;;;;5.38;1.35;;;;;;;;;;5034378;28;20104;-81
2022/07/27 09:46:36;;;;;;;4.28;1.60;;;21.80;81.30;;;;;;5043048;28;20496;-81
2022/07/27 09:49:03;;;;;;;7.47;1.80;;;21.10;86.80;;;;;;5008339;28;20048;-81
2022/07/27 09:51:32;;;;;;;10.73;2.08;;;;;;;;;;5019306;28;20505;-82
2022/07/27 09:54:06;;;;;;;3.92;1.58;;;19.90;95.90;;;;;;5028416;28;20053;-81
2022/07/27 09:56:32;;;;;;;6.45;1.73;;;;;;;;;;5054385;28;20052;-83
2022/07/27 09:58:59;;;;;;;7.90;1.90;;;18.90;99.90;;;;;;5032783;28;20472;-80
2022/07/27 10:01:34;;;;;;;6.63;1.80;;;18.60;99.90;;;;;;5016773;28;20107;-81
2022/07/27 10:04:04;;;;;;;7.53;2.10;;;18.30;99.90;;;;;;5009025;28;20046;-82
2022/07/27 10:06:30;;;;;;;4.68;1.80;;;;;;;;;;5026027;28;20511;-81
2022/07/27 10:08:58;;;;;;;6.97;1.77;;;17.90;99.90;;;;;;5018687;28;20066;-81
2022/07/27 10:11:25;;;;;;;7.60;1.90;;;17.80;99.90;;;;;;5020124;28;20107;-81
2022/07/27 10:13:52;;;;;;;7.30;1.90;;;17.90;99.90;;;;;;5030409;28;20057;-81
2022/07/27 10:16:21;;;;;;;7.63;2.08;;;17.90;99.90;;;;;;5031927;28;20044;-81
2022/07/27 10:19:10;;;;;;;7.35;1.90;;;18.00;99.90;;;;;;5019131;28;20080;-81
2022/07/27 10:21:40;;;;;;;9.25;1.92;;;18.10;99.90;;;;;;5015174;28;20050;-81
2022/07/27 10:24:08;;;;;;;10.80;2.00;;;18.20;99.90;;;;;;5046424;28;20057;-81
2022/07/27 10:26:37;;;;;;;12.32;2.03;;;18.20;99.90;;;;;;5052425;28;20044;-81
2022/07/27 10:29:16;;;;;;;8.35;2.30;;;18.60;99.90;;;;;;5052949;28;20056;-81
2022/07/27 10:31:56;;;;;;;6.57;1.80;;;18.50;99.90;;;;;;5035028;28;20048;-81
2022/07/27 10:34:51;;;;;;;10.50;1.90;;;18.70;99.90;;;;;;5018281;28;20057;-82
2022/07/27 10:37:25;;;;;;;10.20;2.08;;;19.00;99.90;;;;;;5032436;28;20085;-81
2022/07/27 10:40:32;;;;;;;5.60;1.85;;;19.30;99.90;;;;;;5030762;28;20589;-81
2022/07/27 10:42:40;;;;;;;4.85;1.90;;;;;;;;;;5032460;28;20053;-81
2022/07/27 10:45:08;;;;;;;9.13;1.80;;;19.80;99.90;;;;;;5043929;28;20625;-82
2022/07/27 10:47:51;;;;;;;6.50;2.67;;;20.00;99.90;;;;;;5044660;28;20048;-81
2022/07/27 10:50:18;;;;;;;4.65;1.85;;;;;;;;;;5017184;28;20052;-82
2022/07/27 10:52:56;;;;;;;6.50;1.58;;;20.40;99.90;;;;;;5025592;28;20127;-82
2022/07/27 10:55:36;;;;;;;4.95;1.85;;;20.70;99.90;;;;;;5022288;28;20379;-82
2022/07/27 10:58:02;;;;;;;6.93;2.00;;;;;;;;;;5048637;28;20555;-81
2022/07/27 11:00:47;;;;;;;4.88;1.70;;;20.90;99.90;;;;;;5041280;28;20176;-81
2022/07/27 11:03:24;;;;;;;5.05;1.58;;;21.30;97.90;;;;;;5004434;28;20077;-82
2022/07/27 11:06:00;;;;;;;6.15;1.70;;;21.30;96.70;;;;;;5045834;28;20045;-81
2022/07/27 11:08:32;;;;;;;4.15;1.60;;;21.50;95.60;;;;;;5031552;28;20057;-82
2022/07/27 11:10:58;;;;;;;4.95;1.35;;;21.60;93.10;;;;;;5034746;28;20056;-82
2022/07/27 11:13:26;;;;;;;5.90;1.65;;;21.80;92.40;;;;;;5044677;28;20076;-82
2022/07/27 11:15:59;;;;;;;4.95;1.60;;;22.00;91.50;;;;;;5047323;28;20060;-80
2022/07/27 11:18:35;;;;;;;4.25;1.50;;;22.10;93.90;;;;;;5033621;28;20418;-82
2022/07/27 11:21:20;;;;;;;7.80;1.60;;;22.10;93.20;;;;;;5022881;28;20088;-81
2022/07/27 11:23:48;;;;;;;5.32;1.50;;;22.20;90.00;;;;;;5025719;28;20488;-81
2022/07/27 11:26:23;;;;;;;4.18;1.60;;;22.40;88.10;;;;;;5044825;28;20076;-81
2022/07/27 11:28:49;;;;;;;6.32;1.70;;;;;;;;;;5043611;28;20041;-82
2022/07/27 11:31:16;;;;;;;4.13;1.67;;;;;;;;;;5036959;28;20046;-81
2022/07/27 11:33:56;;;;;;;3.80;1.50;;;22.30;90.40;;;;;;5035027;28;20120;-81
2022/07/27 11:36:34;;;;;;;4.78;1.70;;;22.70;81.60;;;;;;5047121;28;20045;-80
2022/07/27 11:39:00;;;;;;;6.25;1.60;;;;;;;;;;5044831;28;20045;-80
2022/07/27 11:41:28;;;;;;;4.63;1.40;;;22.80;79.30;;;;;;5034052;28;20107;-81
2022/07/27 11:43:59;;;;;;;5.75;1.85;;;22.80;80.50;;;;;;5016312;28;20107;-81
2022/07/27 11:46:27;;;;;;;5.35;1.58;;;22.50;79.40;;;;;;5026990;28;20042;-82
2022/07/27 11:48:58;;;;;;;4.10;1.60;;;22.30;80.10;;;;;;5026820;28;20486;-81
2022/07/27 11:51:24;;;;;;;5.80;1.60;;;;;;;;;;5026363;28;20045;-81
2022/07/27 11:54:11;;;;;;;4.07;1.60;;;21.90;85.70;;;;;;5035926;28;20056;-82
2022/07/27 11:56:42;;;;;;;3.35;1.70;;;21.80;80.70;;;;;;5020422;28;20056;-82
2022/07/27 11:59:10;;;;;;;5.10;1.70;;;21.70;80.90;;;;;;5036748;28;20089;-82
2022/07/27 12:01:46;;;;;;;3.72;1.40;;;21.90;89.70;;;;;;5018787;28;20053;-82
2022/07/27 12:04:21;;;;;;;5.82;1.63;;;21.80;89.20;;;;;;5049506;28;20120;-82
2022/07/27 12:06:54;;;;;;;7.22;1.60;;;21.90;81.90;;;;;;5025126;28;20046;-82
2022/07/27 12:09:24;;;;;;;8.55;1.75;;;21.90;86.80;;;;;;5036090;28;20452;-82
2022/07/27 12:11:53;;;;;;;5.05;1.67;;;22.00;81.60;;;;;;5044554;28;20048;-82
2022/07/27 12:14:32;;;;;;;6.68;1.80;;;21.80;88.90;;;;;;5022983;28;20045;-82
2022/07/27 12:17:14;;;;;;;7.28;1.60;;;22.10;81.40;;;;;;5036000;28;21718;-83
2022/07/27 12:19:40;;;;;;;8.23;1.52;;;;;;;;;;5021433;28;20057;-82
2022/07/27 12:22:07;;;;;;;4.07;1.55;;;22.10;82.70;;;;;;5027695;28;20049;-82
2022/07/27 12:24:40;;;;;;;4.15;1.48;;;21.90;81.20;;;;;;5045041;28;20103;-82
2022/07/27 12:27:14;;;;;;;8.32;2.00;;;22.00;78.20;;;;;;5031028;28;20469;-82
2022/07/27 12:29:58;;;;;;;4.88;1.95;;;22.10;75.60;;;;;;5043266;28;20045;-82
2022/07/27 12:32:25;;;;;;;5.63;1.80;;;22.30;75.20;;;;;;5027421;28;20053;-82
2022/07/27 12:34:52;;;;;;;4.55;1.50;;;22.40;74.50;;;;;;5030545;28;20057;-82
2022/07/27 12:37:18;;;;;;;6.10;1.50;;;;;;;;;;5027610;28;20053;-82
2022/07/27 12:39:45;;;;;;;3.65;1.50;;;21.90;73.70;;;;;;5045920;28;20049;-81
2022/07/27 12:42:12;;;;;;;6.40;1.60;;;21.60;75.30;;;;;;5027295;28;20077;-81
2022/07/27 12:44:43;;;;;;;4.32;1.55;;;21.40;75.80;;;;;;5045166;28;20048;-82
2022/07/27 12:50:05;;;;;;;2.70;1.30;;;21.10;76.90;;;;;;5026447;28;20592;-83
2022/07/27 12:52:32;;;;;;;4.22;1.40;;;21.00;76.10;;;;;;5019193;28;20061;-83
2022/07/27 12:54:58;;;;;;;6.03;1.40;;;;;;;;;;5012130;28;20053;-83
2022/07/27 12:57:24;;;;;;;4.20;1.60;;;20.90;76.00;;;;;;5049174;28;20053;-82
2022/07/27 12:59:50;;;;;;;3.17;1.30;;;;;;;;;;5014226;28;20053;-82
2022/07/27 13:02:17;;;;;;;5.28;1.38;;;;;;;;;;5049209;28;20071;-82
2022/07/27 13:04:43;;;;;;;7.93;1.58;;;;;;;;;;5053624;28;20045;-83
2022/07/27 13:07:09;;;;;;;4.45;1.35;;;;;;;;;;5033085;28;20049;-82
2022/07/27 13:09:35;;;;;;;6.03;1.38;;;;;;;;;;5038928;28;20132;-82
2022/07/27 13:12:01;;;;;;;5.25;1.40;;;21.10;75.10;;;;;;5027495;28;20057;-83
2022/07/27 13:14:27;;;;;;;3.60;1.30;;;;;;;;;;5026406;28;20061;-82
2022/07/27 13:16:53;;;;;;;3.30;1.20;;;;;;;;;;5044903;28;20061;-83
2022/07/27 13:19:19;;;;;;;3.22;1.27;;;;;;;;;;5030323;28;20049;-83
2022/07/27 13:21:46;;;;;;;2.80;1.27;;;;;;;;;;5009165;28;20053;-83
2022/07/27 13:24:12;;;;;;;3.45;1.25;;;;;;;;;;5026459;28;20143;-83
2022/07/27 13:26:39;;;;;;;5.10;1.40;;;;;;;;;;5042743;28;20060;-83
2022/07/27 13:29:05;;;;;;;6.80;1.52;;;;;;;;;;5020859;28;20099;-82
2022/07/27 13:31:32;;;;;;;5.03;1.27;;;;;;;;;;5018902;28;20354;-82
2022/07/27 13:34:00;;;;;;;6.93;1.35;;;;;;;;;;5018678;28;20566;-82
2022/07/27 13:36:26;;;;;;;6.43;1.58;;;;;;;;;;5036925;28;20050;-83
2022/07/27 13:38:52;;;;;;;4.72;1.30;;;;;;;;;;5040052;28;20061;-83
2022/07/27 13:41:18;;;;;;;3.83;1.38;;;;;;;;;;5047178;28;20045;-82
2022/07/27 13:43:44;;;;;;;6.55;1.30;;;;;;;;;;5044435;28;20416;-81
2022/07/27 13:46:15;;;;;;;4.40;1.38;;;22.00;76.80;;;;;;5039550;28;20057;-82
2022/07/27 13:48:41;;;;;;;4.20;1.30;;;;;;;;;;5038289;28;20052;-83
2022/07/27 13:51:07;;;;;;;5.35;1.38;;;;;;;;;;5046190;28;20049;-82
2022/07/27 13:53:33;;;;;;;6.22;1.50;;;;;;;;;;5055820;28;20050;-82
2022/07/27 13:56:01;;;;;;;3.08;1.27;;;;;;;;;;5044286;28;20128;-81
2022/07/27 13:58:28;;;;;;;3.42;1.15;;;;;;;;;;5044819;28;20135;-82
2022/07/27 14:00:54;;;;;;;3.58;1.20;;;;;;;;;;5038823;28;20047;-82
2022/07/27 14:03:20;;;;;;;3.28;1.23;;;;;;;;;;5062778;28;20037;-82
2022/07/27 14:05:46;;;;;;;3.72;1.30;;;;;;;;;;5053445;28;20041;-81
2022/07/27 14:08:13;;;;;;;6.40;1.20;;;;;;;;;;5055370;28;20049;-82
2022/07/27 14:10:40;;;;;;;5.80;1.50;;;;;;;;;;5042253;28;20106;-82